sensor_id;sensor_type;location;lat;lon;timestamp;P1;durP1;ratioP1;P2;durP2;ratioP2
79261;SDS011;68699;48.220;16.358;2023-08-06T00:01:39;0.23;;;0.23;;
79261;SDS011;68699;48.220;16.358;2023-08-06T00:04:05;0.67;;;0.20;;
79261;SDS011;68699;48.220;16.358;2023-08-06T00:06:31;0.20;;;0.20;;
79261;SDS011;68699;48.220;16.358;2023-08-06T00:08:57;0.20;;;0.20;;
79261;SDS011;68699;48.220;16.358;2023-08-06T00:11:23;0.40;;;0.30;;
79261;SDS011;68699;48.220;16.358;2023-08-06T00:13:49;0.20;;;0.20;;
79261;SDS011;68699;48.220;16.358;2023-08-06T00:16:15;0.20;;;0.20;;
79261;SDS011;68699;48.220;16.358;2023-08-06T00:18:41;0.10;;;0.10;;
79261;SDS011;68699;48.220;16.358;2023-08-06T00:21:07;0.30;;;0.30;;
79261;SDS011;68699;48.220;16.358;2023-08-06T00:23:33;0.20;;;0.20;;
79261;SDS011;68699;48.220;16.358;2023-08-06T00:25:59;0.20;;;0.20;;
79261;SDS011;68699;48.220;16.358;2023-08-06T00:28:25;0.30;;;0.30;;
79261;SDS011;68699;48.220;16.358;2023-08-06T00:30:52;0.30;;;0.30;;
79261;SDS011;68699;48.220;16.358;2023-08-06T00:33:18;0.17;;;0.17;;
79261;SDS011;68699;48.220;16.358;2023-08-06T00:35:45;0.30;;;0.20;;
79261;SDS011;68699;48.220;16.358;2023-08-06T00:38:11;1.03;;;0.30;;
79261;SDS011;68699;48.220;16.358;2023-08-06T00:40:37;0.30;;;0.30;;
79261;SDS011;68699;48.220;16.358;2023-08-06T00:43:03;0.30;;;0.30;;
79261;SDS011;68699;48.220;16.358;2023-08-06T00:45:30;0.30;;;0.30;;
79261;SDS011;68699;48.220;16.358;2023-08-06T00:47:56;1.07;;;0.27;;
79261;SDS011;68699;48.220;16.358;2023-08-06T00:50:22;0.37;;;0.37;;
79261;SDS011;68699;48.220;16.358;2023-08-06T00:52:48;0.50;;;0.50;;
79261;SDS011;68699;48.220;16.358;2023-08-06T00:55:14;0.50;;;0.30;;
79261;SDS011;68699;48.220;16.358;2023-08-06T00:57:41;0.40;;;0.40;;
79261;SDS011;68699;48.220;16.358;2023-08-06T01:00:07;0.27;;;0.20;;
79261;SDS011;68699;48.220;16.358;2023-08-06T01:02:33;0.33;;;0.33;;
79261;SDS011;68699;48.220;16.358;2023-08-06T01:04:59;0.27;;;0.27;;
79261;SDS011;68699;48.220;16.358;2023-08-06T01:07:43;0.33;;;0.33;;
79261;SDS011;68699;48.220;16.358;2023-08-06T01:10:23;0.20;;;0.20;;
79261;SDS011;68699;48.220;16.358;2023-08-06T01:15:26;1.37;;;0.60;;
79261;SDS011;68699;48.220;16.358;2023-08-06T01:17:53;0.40;;;0.40;;
79261;SDS011;68699;48.220;16.358;2023-08-06T01:20:20;0.30;;;0.30;;
79261;SDS011;68699;48.220;16.358;2023-08-06T01:22:46;0.40;;;0.40;;
79261;SDS011;68699;48.220;16.358;2023-08-06T01:25:13;0.20;;;0.20;;
79261;SDS011;68699;48.220;16.358;2023-08-06T01:27:44;0.20;;;0.20;;
79261;SDS011;68699;48.220;16.358;2023-08-06T01:32:36;0.20;;;0.20;;
79261;SDS011;68699;48.220;16.358;2023-08-06T01:35:04;0.37;;;0.27;;
79261;SDS011;68699;48.220;16.358;2023-08-06T01:37:31;0.23;;;0.20;;
79261;SDS011;68699;48.220;16.358;2023-08-06T01:39:57;0.20;;;0.20;;
79261;SDS011;68699;48.220;16.358;2023-08-06T01:42:23;0.77;;;0.40;;
79261;SDS011;68699;48.220;16.358;2023-08-06T01:44:49;0.30;;;0.30;;
79261;SDS011;68699;48.220;16.358;2023-08-06T01:47:15;0.20;;;0.20;;
79261;SDS011;68699;48.220;16.358;2023-08-06T01:49:41;0.20;;;0.20;;
79261;SDS011;68699;48.220;16.358;2023-08-06T01:52:07;1.13;;;0.50;;
79261;SDS011;68699;48.220;16.358;2023-08-06T01:54:33;0.30;;;0.30;;
79261;SDS011;68699;48.220;16.358;2023-08-06T01:56:59;0.40;;;0.40;;
79261;SDS011;68699;48.220;16.358;2023-08-06T01:59:25;0.83;;;0.30;;
79261;SDS011;68699;48.220;16.358;2023-08-06T02:01:51;0.50;;;0.50;;
79261;SDS011;68699;48.220;16.358;2023-08-06T02:04:17;0.40;;;0.40;;
79261;SDS011;68699;48.220;16.358;2023-08-06T02:06:43;0.50;;;0.50;;
79261;SDS011;68699;48.220;16.358;2023-08-06T02:09:09;0.60;;;0.60;;
79261;SDS011;68699;48.220;16.358;2023-08-06T02:11:35;0.73;;;0.40;;
79261;SDS011;68699;48.220;16.358;2023-08-06T02:14:01;0.47;;;0.47;;
79261;SDS011;68699;48.220;16.358;2023-08-06T02:16:27;0.60;;;0.60;;
79261;SDS011;68699;48.220;16.358;2023-08-06T02:18:53;0.70;;;0.70;;
79261;SDS011;68699;48.220;16.358;2023-08-06T02:21:19;0.60;;;0.60;;
79261;SDS011;68699;48.220;16.358;2023-08-06T02:23:45;0.50;;;0.50;;
79261;SDS011;68699;48.220;16.358;2023-08-06T02:26:11;0.67;;;0.67;;
79261;SDS011;68699;48.220;16.358;2023-08-06T02:28:37;0.70;;;0.70;;
79261;SDS011;68699;48.220;16.358;2023-08-06T02:31:03;0.50;;;0.50;;
79261;SDS011;68699;48.220;16.358;2023-08-06T02:33:29;0.80;;;0.80;;
79261;SDS011;68699;48.220;16.358;2023-08-06T02:35:58;0.93;;;0.70;;
79261;SDS011;68699;48.220;16.358;2023-08-06T02:38:25;0.60;;;0.60;;
79261;SDS011;68699;48.220;16.358;2023-08-06T02:40:51;0.70;;;0.70;;
79261;SDS011;68699;48.220;16.358;2023-08-06T02:43:17;0.63;;;0.63;;
79261;SDS011;68699;48.220;16.358;2023-08-06T02:45:43;0.70;;;0.70;;
79261;SDS011;68699;48.220;16.358;2023-08-06T02:48:09;0.87;;;0.87;;
79261;SDS011;68699;48.220;16.358;2023-08-06T02:50:38;0.80;;;0.80;;
79261;SDS011;68699;48.220;16.358;2023-08-06T02:53:05;0.80;;;0.80;;
79261;SDS011;68699;48.220;16.358;2023-08-06T02:55:31;1.67;;;0.90;;
79261;SDS011;68699;48.220;16.358;2023-08-06T02:57:59;0.90;;;0.90;;
79261;SDS011;68699;48.220;16.358;2023-08-06T03:00:25;1.10;;;0.90;;
79261;SDS011;68699;48.220;16.358;2023-08-06T03:02:51;0.90;;;0.90;;
79261;SDS011;68699;48.220;16.358;2023-08-06T03:05:17;0.90;;;0.90;;
79261;SDS011;68699;48.220;16.358;2023-08-06T03:07:43;0.87;;;0.87;;
79261;SDS011;68699;48.220;16.358;2023-08-06T03:10:09;0.90;;;0.90;;
79261;SDS011;68699;48.220;16.358;2023-08-06T03:12:35;1.10;;;1.10;;
79261;SDS011;68699;48.220;16.358;2023-08-06T03:15:01;0.80;;;0.80;;
79261;SDS011;68699;48.220;16.358;2023-08-06T03:17:27;0.97;;;0.97;;
79261;SDS011;68699;48.220;16.358;2023-08-06T03:19:53;0.87;;;0.87;;
79261;SDS011;68699;48.220;16.358;2023-08-06T03:22:19;1.00;;;1.00;;
79261;SDS011;68699;48.220;16.358;2023-08-06T03:24:45;0.77;;;0.77;;
79261;SDS011;68699;48.220;16.358;2023-08-06T03:27:11;1.07;;;1.03;;
79261;SDS011;68699;48.220;16.358;2023-08-06T03:29:37;1.10;;;1.10;;
79261;SDS011;68699;48.220;16.358;2023-08-06T03:32:03;1.00;;;1.00;;
79261;SDS011;68699;48.220;16.358;2023-08-06T03:34:32;1.07;;;1.07;;
79261;SDS011;68699;48.220;16.358;2023-08-06T03:36:58;1.10;;;1.10;;
79261;SDS011;68699;48.220;16.358;2023-08-06T03:39:24;1.33;;;1.23;;
79261;SDS011;68699;48.220;16.358;2023-08-06T03:41:50;1.47;;;1.23;;
79261;SDS011;68699;48.220;16.358;2023-08-06T03:44:16;1.50;;;1.40;;
79261;SDS011;68699;48.220;16.358;2023-08-06T03:46:42;1.40;;;1.30;;
79261;SDS011;68699;48.220;16.358;2023-08-06T03:49:08;1.40;;;1.30;;
79261;SDS011;68699;48.220;16.358;2023-08-06T03:51:34;1.57;;;1.40;;
79261;SDS011;68699;48.220;16.358;2023-08-06T03:54:00;1.97;;;1.40;;
79261;SDS011;68699;48.220;16.358;2023-08-06T03:56:26;1.60;;;1.50;;
79261;SDS011;68699;48.220;16.358;2023-08-06T03:58:52;1.63;;;1.53;;
79261;SDS011;68699;48.220;16.358;2023-08-06T04:01:18;1.70;;;1.60;;
79261;SDS011;68699;48.220;16.358;2023-08-06T04:03:44;1.43;;;1.33;;
79261;SDS011;68699;48.220;16.358;2023-08-06T04:06:10;1.60;;;1.50;;
79261;SDS011;68699;48.220;16.358;2023-08-06T04:08:36;1.50;;;1.40;;
79261;SDS011;68699;48.220;16.358;2023-08-06T04:11:02;1.70;;;1.60;;
79261;SDS011;68699;48.220;16.358;2023-08-06T04:13:28;2.00;;;1.73;;
79261;SDS011;68699;48.220;16.358;2023-08-06T04:15:54;1.73;;;1.63;;
79261;SDS011;68699;48.220;16.358;2023-08-06T04:18:21;1.50;;;1.40;;
79261;SDS011;68699;48.220;16.358;2023-08-06T04:20:47;1.37;;;1.37;;
79261;SDS011;68699;48.220;16.358;2023-08-06T04:23:14;1.60;;;1.50;;
79261;SDS011;68699;48.220;16.358;2023-08-06T04:25:40;1.77;;;1.67;;
79261;SDS011;68699;48.220;16.358;2023-08-06T04:28:07;1.60;;;1.50;;
79261;SDS011;68699;48.220;16.358;2023-08-06T04:30:33;1.70;;;1.60;;
79261;SDS011;68699;48.220;16.358;2023-08-06T04:32:59;1.60;;;1.50;;
79261;SDS011;68699;48.220;16.358;2023-08-06T04:35:25;1.50;;;1.40;;
79261;SDS011;68699;48.220;16.358;2023-08-06T04:37:51;2.87;;;1.40;;
79261;SDS011;68699;48.220;16.358;2023-08-06T04:40:17;1.60;;;1.50;;
79261;SDS011;68699;48.220;16.358;2023-08-06T04:42:43;1.53;;;1.47;;
79261;SDS011;68699;48.220;16.358;2023-08-06T04:45:09;1.43;;;1.37;;
79261;SDS011;68699;48.220;16.358;2023-08-06T04:47:35;1.53;;;1.43;;
79261;SDS011;68699;48.220;16.358;2023-08-06T04:50:02;1.43;;;1.40;;
79261;SDS011;68699;48.220;16.358;2023-08-06T04:52:28;1.43;;;1.40;;
79261;SDS011;68699;48.220;16.358;2023-08-06T04:54:54;1.40;;;1.40;;
79261;SDS011;68699;48.220;16.358;2023-08-06T04:57:20;1.30;;;1.30;;
79261;SDS011;68699;48.220;16.358;2023-08-06T04:59:47;1.30;;;1.20;;
79261;SDS011;68699;48.220;16.358;2023-08-06T05:02:13;1.33;;;1.23;;
79261;SDS011;68699;48.220;16.358;2023-08-06T05:04:39;1.33;;;1.23;;
79261;SDS011;68699;48.220;16.358;2023-08-06T05:07:05;1.30;;;1.30;;
79261;SDS011;68699;48.220;16.358;2023-08-06T05:09:31;1.60;;;1.50;;
79261;SDS011;68699;48.220;16.358;2023-08-06T05:12:00;1.20;;;1.20;;
79261;SDS011;68699;48.220;16.358;2023-08-06T05:14:26;1.40;;;1.40;;
79261;SDS011;68699;48.220;16.358;2023-08-06T05:16:52;1.40;;;1.30;;
79261;SDS011;68699;48.220;16.358;2023-08-06T05:19:18;1.47;;;1.43;;
79261;SDS011;68699;48.220;16.358;2023-08-06T05:21:44;1.83;;;1.73;;
79261;SDS011;68699;48.220;16.358;2023-08-06T05:24:10;2.33;;;1.50;;
79261;SDS011;68699;48.220;16.358;2023-08-06T05:26:37;1.50;;;1.40;;
79261;SDS011;68699;48.220;16.358;2023-08-06T05:29:03;1.80;;;1.40;;
79261;SDS011;68699;48.220;16.358;2023-08-06T05:31:29;1.40;;;1.30;;
79261;SDS011;68699;48.220;16.358;2023-08-06T05:33:55;1.30;;;1.20;;
79261;SDS011;68699;48.220;16.358;2023-08-06T05:36:21;2.77;;;1.10;;
79261;SDS011;68699;48.220;16.358;2023-08-06T05:38:47;2.20;;;1.50;;
79261;SDS011;68699;48.220;16.358;2023-08-06T05:41:13;1.20;;;1.20;;
79261;SDS011;68699;48.220;16.358;2023-08-06T05:43:39;3.93;;;1.40;;
79261;SDS011;68699;48.220;16.358;2023-08-06T05:46:05;1.67;;;1.57;;
79261;SDS011;68699;48.220;16.358;2023-08-06T05:48:31;10.67;;;2.50;;
79261;SDS011;68699;48.220;16.358;2023-08-06T05:50:57;1.53;;;1.43;;
79261;SDS011;68699;48.220;16.358;2023-08-06T05:53:23;1.30;;;1.30;;
79261;SDS011;68699;48.220;16.358;2023-08-06T05:55:50;1.70;;;1.60;;
79261;SDS011;68699;48.220;16.358;2023-08-06T05:58:16;1.73;;;1.37;;
79261;SDS011;68699;48.220;16.358;2023-08-06T06:00:42;1.40;;;1.30;;
79261;SDS011;68699;48.220;16.358;2023-08-06T06:03:08;1.53;;;1.43;;
79261;SDS011;68699;48.220;16.358;2023-08-06T06:05:34;1.40;;;1.30;;
79261;SDS011;68699;48.220;16.358;2023-08-06T06:08:03;1.57;;;1.47;;
79261;SDS011;68699;48.220;16.358;2023-08-06T06:10:29;1.30;;;1.30;;
79261;SDS011;68699;48.220;16.358;2023-08-06T06:12:55;1.50;;;1.40;;
79261;SDS011;68699;48.220;16.358;2023-08-06T06:15:21;1.60;;;1.50;;
79261;SDS011;68699;48.220;16.358;2023-08-06T06:17:48;1.77;;;1.67;;
79261;SDS011;68699;48.220;16.358;2023-08-06T06:20:14;1.50;;;1.40;;
79261;SDS011;68699;48.220;16.358;2023-08-06T06:22:40;1.40;;;1.40;;
79261;SDS011;68699;48.220;16.358;2023-08-06T06:25:06;1.20;;;1.20;;
79261;SDS011;68699;48.220;16.358;2023-08-06T06:27:32;1.57;;;1.47;;
79261;SDS011;68699;48.220;16.358;2023-08-06T06:29:58;1.33;;;1.30;;
79261;SDS011;68699;48.220;16.358;2023-08-06T06:32:24;1.40;;;1.30;;
79261;SDS011;68699;48.220;16.358;2023-08-06T06:34:50;1.23;;;1.23;;
79261;SDS011;68699;48.220;16.358;2023-08-06T06:37:16;1.37;;;1.37;;
79261;SDS011;68699;48.220;16.358;2023-08-06T06:39:42;1.30;;;1.30;;
79261;SDS011;68699;48.220;16.358;2023-08-06T06:42:09;1.67;;;1.53;;
79261;SDS011;68699;48.220;16.358;2023-08-06T06:44:35;1.40;;;1.30;;
79261;SDS011;68699;48.220;16.358;2023-08-06T06:47:01;1.37;;;1.33;;
79261;SDS011;68699;48.220;16.358;2023-08-06T06:49:27;1.93;;;1.80;;
79261;SDS011;68699;48.220;16.358;2023-08-06T06:51:53;1.50;;;1.40;;
79261;SDS011;68699;48.220;16.358;2023-08-06T06:54:19;1.50;;;1.40;;
79261;SDS011;68699;48.220;16.358;2023-08-06T06:56:45;1.30;;;1.20;;
79261;SDS011;68699;48.220;16.358;2023-08-06T06:59:11;1.87;;;1.50;;
79261;SDS011;68699;48.220;16.358;2023-08-06T07:01:37;1.33;;;1.33;;
79261;SDS011;68699;48.220;16.358;2023-08-06T07:04:03;1.50;;;1.40;;
79261;SDS011;68699;48.220;16.358;2023-08-06T07:06:30;1.70;;;1.60;;
79261;SDS011;68699;48.220;16.358;2023-08-06T07:08:56;1.60;;;1.60;;
79261;SDS011;68699;48.220;16.358;2023-08-06T07:11:22;1.43;;;1.43;;
79261;SDS011;68699;48.220;16.358;2023-08-06T07:13:49;1.47;;;1.37;;
79261;SDS011;68699;48.220;16.358;2023-08-06T07:16:15;1.83;;;1.60;;
79261;SDS011;68699;48.220;16.358;2023-08-06T07:18:41;1.43;;;1.40;;
79261;SDS011;68699;48.220;16.358;2023-08-06T07:21:07;1.20;;;1.20;;
79261;SDS011;68699;48.220;16.358;2023-08-06T07:23:33;1.30;;;1.30;;
79261;SDS011;68699;48.220;16.358;2023-08-06T07:25:59;1.20;;;1.20;;
79261;SDS011;68699;48.220;16.358;2023-08-06T07:28:25;1.27;;;1.27;;
79261;SDS011;68699;48.220;16.358;2023-08-06T07:30:51;1.20;;;1.20;;
79261;SDS011;68699;48.220;16.358;2023-08-06T07:33:17;1.20;;;1.20;;
79261;SDS011;68699;48.220;16.358;2023-08-06T07:35:43;1.20;;;1.20;;
79261;SDS011;68699;48.220;16.358;2023-08-06T07:38:09;1.23;;;1.23;;
79261;SDS011;68699;48.220;16.358;2023-08-06T07:40:36;1.50;;;1.40;;
79261;SDS011;68699;48.220;16.358;2023-08-06T07:43:02;1.57;;;1.30;;
79261;SDS011;68699;48.220;16.358;2023-08-06T07:45:32;1.53;;;1.43;;
79261;SDS011;68699;48.220;16.358;2023-08-06T07:47:58;1.67;;;1.57;;
79261;SDS011;68699;48.220;16.358;2023-08-06T07:50:24;1.33;;;1.33;;
79261;SDS011;68699;48.220;16.358;2023-08-06T07:52:50;1.67;;;1.57;;
79261;SDS011;68699;48.220;16.358;2023-08-06T07:55:16;1.40;;;1.40;;
79261;SDS011;68699;48.220;16.358;2023-08-06T07:57:42;1.70;;;1.60;;
79261;SDS011;68699;48.220;16.358;2023-08-06T08:00:08;1.70;;;1.60;;
79261;SDS011;68699;48.220;16.358;2023-08-06T08:02:34;1.87;;;1.77;;
79261;SDS011;68699;48.220;16.358;2023-08-06T08:05:00;2.27;;;2.17;;
79261;SDS011;68699;48.220;16.358;2023-08-06T08:07:27;1.60;;;1.60;;
79261;SDS011;68699;48.220;16.358;2023-08-06T08:09:55;1.70;;;1.60;;
79261;SDS011;68699;48.220;16.358;2023-08-06T08:12:21;1.60;;;1.50;;
79261;SDS011;68699;48.220;16.358;2023-08-06T08:14:47;1.80;;;1.70;;
79261;SDS011;68699;48.220;16.358;2023-08-06T08:17:13;1.77;;;1.67;;
79261;SDS011;68699;48.220;16.358;2023-08-06T08:19:42;1.87;;;1.77;;
79261;SDS011;68699;48.220;16.358;2023-08-06T08:22:08;1.80;;;1.70;;
79261;SDS011;68699;48.220;16.358;2023-08-06T08:24:34;1.63;;;1.53;;
79261;SDS011;68699;48.220;16.358;2023-08-06T08:27:00;1.87;;;1.70;;
79261;SDS011;68699;48.220;16.358;2023-08-06T08:29:26;1.70;;;1.60;;
79261;SDS011;68699;48.220;16.358;2023-08-06T08:31:52;1.60;;;1.50;;
79261;SDS011;68699;48.220;16.358;2023-08-06T08:34:18;1.67;;;1.57;;
79261;SDS011;68699;48.220;16.358;2023-08-06T08:36:44;1.60;;;1.50;;
79261;SDS011;68699;48.220;16.358;2023-08-06T08:39:12;2.00;;;1.90;;
79261;SDS011;68699;48.220;16.358;2023-08-06T08:41:39;1.90;;;1.80;;
79261;SDS011;68699;48.220;16.358;2023-08-06T08:44:07;2.23;;;1.90;;
79261;SDS011;68699;48.220;16.358;2023-08-06T08:46:35;1.80;;;1.67;;
79261;SDS011;68699;48.220;16.358;2023-08-06T08:49:02;1.70;;;1.60;;
79261;SDS011;68699;48.220;16.358;2023-08-06T08:51:28;1.77;;;1.67;;
79261;SDS011;68699;48.220;16.358;2023-08-06T08:53:54;1.77;;;1.67;;
79261;SDS011;68699;48.220;16.358;2023-08-06T08:56:22;1.83;;;1.73;;
79261;SDS011;68699;48.220;16.358;2023-08-06T08:58:48;1.83;;;1.73;;
79261;SDS011;68699;48.220;16.358;2023-08-06T09:01:14;1.57;;;1.47;;
79261;SDS011;68699;48.220;16.358;2023-08-06T09:03:41;1.60;;;1.50;;
79261;SDS011;68699;48.220;16.358;2023-08-06T09:06:09;1.50;;;1.40;;
79261;SDS011;68699;48.220;16.358;2023-08-06T09:08:38;2.10;;;1.90;;
79261;SDS011;68699;48.220;16.358;2023-08-06T09:11:05;2.10;;;2.00;;
79261;SDS011;68699;48.220;16.358;2023-08-06T09:13:36;1.87;;;1.77;;
79261;SDS011;68699;48.220;16.358;2023-08-06T09:16:03;2.00;;;1.90;;
79261;SDS011;68699;48.220;16.358;2023-08-06T09:18:29;1.97;;;1.87;;
79261;SDS011;68699;48.220;16.358;2023-08-06T09:20:56;2.13;;;2.03;;
79261;SDS011;68699;48.220;16.358;2023-08-06T09:23:29;2.03;;;1.93;;
79261;SDS011;68699;48.220;16.358;2023-08-06T09:25:55;2.30;;;2.20;;
79261;SDS011;68699;48.220;16.358;2023-08-06T09:28:21;2.10;;;2.00;;
79261;SDS011;68699;48.220;16.358;2023-08-06T09:30:49;2.60;;;2.40;;
79261;SDS011;68699;48.220;16.358;2023-08-06T09:33:19;2.00;;;1.90;;
79261;SDS011;68699;48.220;16.358;2023-08-06T09:35:45;2.40;;;2.27;;
79261;SDS011;68699;48.220;16.358;2023-08-06T09:38:12;2.30;;;2.20;;
79261;SDS011;68699;48.220;16.358;2023-08-06T09:40:39;2.57;;;2.17;;
79261;SDS011;68699;48.220;16.358;2023-08-06T09:43:05;2.57;;;2.30;;
79261;SDS011;68699;48.220;16.358;2023-08-06T09:45:32;2.13;;;2.03;;
79261;SDS011;68699;48.220;16.358;2023-08-06T09:48:05;2.50;;;2.30;;
79261;SDS011;68699;48.220;16.358;2023-08-06T09:50:32;2.30;;;2.17;;
79261;SDS011;68699;48.220;16.358;2023-08-06T09:53:01;2.10;;;2.00;;
79261;SDS011;68699;48.220;16.358;2023-08-06T09:55:28;2.07;;;1.97;;
79261;SDS011;68699;48.220;16.358;2023-08-06T09:57:54;2.00;;;1.90;;
79261;SDS011;68699;48.220;16.358;2023-08-06T10:00:20;1.97;;;1.87;;
79261;SDS011;68699;48.220;16.358;2023-08-06T10:02:48;1.87;;;1.77;;
79261;SDS011;68699;48.220;16.358;2023-08-06T10:05:16;1.90;;;1.80;;
79261;SDS011;68699;48.220;16.358;2023-08-06T10:07:43;1.23;;;1.23;;
79261;SDS011;68699;48.220;16.358;2023-08-06T10:10:10;1.53;;;1.43;;
79261;SDS011;68699;48.220;16.358;2023-08-06T10:12:37;1.70;;;1.60;;
79261;SDS011;68699;48.220;16.358;2023-08-06T10:15:06;1.67;;;1.57;;
79261;SDS011;68699;48.220;16.358;2023-08-06T10:17:34;1.43;;;1.37;;
79261;SDS011;68699;48.220;16.358;2023-08-06T10:20:01;1.47;;;1.40;;
79261;SDS011;68699;48.220;16.358;2023-08-06T10:22:27;1.70;;;1.60;;
79261;SDS011;68699;48.220;16.358;2023-08-06T10:24:53;1.60;;;1.50;;
79261;SDS011;68699;48.220;16.358;2023-08-06T10:27:20;1.70;;;1.60;;
79261;SDS011;68699;48.220;16.358;2023-08-06T10:29:47;1.83;;;1.73;;
79261;SDS011;68699;48.220;16.358;2023-08-06T10:32:14;2.00;;;1.90;;
79261;SDS011;68699;48.220;16.358;2023-08-06T10:34:53;2.00;;;1.90;;
79261;SDS011;68699;48.220;16.358;2023-08-06T10:37:22;1.90;;;1.80;;
79261;SDS011;68699;48.220;16.358;2023-08-06T10:39:51;2.00;;;1.90;;
79261;SDS011;68699;48.220;16.358;2023-08-06T10:42:27;2.33;;;2.23;;
79261;SDS011;68699;48.220;16.358;2023-08-06T10:45:13;1.97;;;1.87;;
79261;SDS011;68699;48.220;16.358;2023-08-06T10:47:40;2.17;;;2.07;;
79261;SDS011;68699;48.220;16.358;2023-08-06T10:50:15;2.23;;;2.13;;
79261;SDS011;68699;48.220;16.358;2023-08-06T10:52:43;2.20;;;2.10;;
79261;SDS011;68699;48.220;16.358;2023-08-06T10:55:09;2.40;;;2.30;;
79261;SDS011;68699;48.220;16.358;2023-08-06T10:57:35;2.50;;;2.37;;
79261;SDS011;68699;48.220;16.358;2023-08-06T11:00:05;2.63;;;2.43;;
79261;SDS011;68699;48.220;16.358;2023-08-06T11:02:35;2.43;;;2.30;;
79261;SDS011;68699;48.220;16.358;2023-08-06T11:05:07;2.30;;;2.20;;
79261;SDS011;68699;48.220;16.358;2023-08-06T11:07:37;2.67;;;2.50;;
79261;SDS011;68699;48.220;16.358;2023-08-06T11:12:30;2.67;;;2.47;;
79261;SDS011;68699;48.220;16.358;2023-08-06T11:14:56;2.80;;;2.60;;
79261;SDS011;68699;48.220;16.358;2023-08-06T11:17:22;2.10;;;2.00;;
79261;SDS011;68699;48.220;16.358;2023-08-06T11:19:48;2.57;;;2.37;;
79261;SDS011;68699;48.220;16.358;2023-08-06T11:22:15;2.33;;;2.20;;
79261;SDS011;68699;48.220;16.358;2023-08-06T11:24:41;2.50;;;2.30;;
79261;SDS011;68699;48.220;16.358;2023-08-06T11:27:11;2.77;;;2.57;;
79261;SDS011;68699;48.220;16.358;2023-08-06T11:29:38;2.97;;;2.70;;
79261;SDS011;68699;48.220;16.358;2023-08-06T11:32:04;2.97;;;2.60;;
79261;SDS011;68699;48.220;16.358;2023-08-06T11:34:30;3.30;;;3.00;;
79261;SDS011;68699;48.220;16.358;2023-08-06T11:36:56;2.90;;;2.70;;
79261;SDS011;68699;48.220;16.358;2023-08-06T11:39:23;3.03;;;2.60;;
79261;SDS011;68699;48.220;16.358;2023-08-06T11:41:49;2.60;;;2.40;;
79261;SDS011;68699;48.220;16.358;2023-08-06T11:44:15;2.50;;;2.40;;
79261;SDS011;68699;48.220;16.358;2023-08-06T11:46:54;2.47;;;2.33;;
79261;SDS011;68699;48.220;16.358;2023-08-06T11:49:42;2.53;;;2.40;;
79261;SDS011;68699;48.220;16.358;2023-08-06T11:52:16;2.67;;;2.47;;
79261;SDS011;68699;48.220;16.358;2023-08-06T11:54:44;2.43;;;2.30;;
79261;SDS011;68699;48.220;16.358;2023-08-06T11:57:10;2.37;;;2.20;;
79261;SDS011;68699;48.220;16.358;2023-08-06T11:59:37;2.60;;;2.43;;
79261;SDS011;68699;48.220;16.358;2023-08-06T12:02:04;2.33;;;2.23;;
79261;SDS011;68699;48.220;16.358;2023-08-06T12:04:31;2.77;;;2.57;;
79261;SDS011;68699;48.220;16.358;2023-08-06T12:07:06;2.93;;;2.50;;
79261;SDS011;68699;48.220;16.358;2023-08-06T12:09:35;2.20;;;2.10;;
79261;SDS011;68699;48.220;16.358;2023-08-06T12:12:01;2.50;;;2.30;;
79261;SDS011;68699;48.220;16.358;2023-08-06T12:14:28;2.50;;;2.30;;
79261;SDS011;68699;48.220;16.358;2023-08-06T12:16:54;2.80;;;2.57;;
79261;SDS011;68699;48.220;16.358;2023-08-06T12:19:20;3.07;;;2.83;;
79261;SDS011;68699;48.220;16.358;2023-08-06T12:21:48;2.50;;;2.30;;
79261;SDS011;68699;48.220;16.358;2023-08-06T12:24:14;2.70;;;2.50;;
79261;SDS011;68699;48.220;16.358;2023-08-06T12:26:40;2.60;;;2.40;;
79261;SDS011;68699;48.220;16.358;2023-08-06T12:29:06;2.50;;;2.30;;
79261;SDS011;68699;48.220;16.358;2023-08-06T12:31:32;2.40;;;2.20;;
79261;SDS011;68699;48.220;16.358;2023-08-06T12:33:58;2.50;;;2.30;;
79261;SDS011;68699;48.220;16.358;2023-08-06T12:36:24;3.23;;;2.53;;
79261;SDS011;68699;48.220;16.358;2023-08-06T12:38:50;2.50;;;2.40;;
79261;SDS011;68699;48.220;16.358;2023-08-06T12:41:16;2.60;;;2.40;;
79261;SDS011;68699;48.220;16.358;2023-08-06T12:43:42;2.70;;;2.50;;
79261;SDS011;68699;48.220;16.358;2023-08-06T12:46:08;2.90;;;2.70;;
79261;SDS011;68699;48.220;16.358;2023-08-06T12:48:35;2.47;;;2.30;;
79261;SDS011;68699;48.220;16.358;2023-08-06T12:51:01;2.70;;;2.50;;
79261;SDS011;68699;48.220;16.358;2023-08-06T12:53:27;2.37;;;2.20;;
79261;SDS011;68699;48.220;16.358;2023-08-06T12:55:53;3.00;;;2.80;;
79261;SDS011;68699;48.220;16.358;2023-08-06T12:58:19;3.00;;;2.80;;
79261;SDS011;68699;48.220;16.358;2023-08-06T13:00:45;2.60;;;2.40;;
79261;SDS011;68699;48.220;16.358;2023-08-06T13:03:12;2.47;;;2.30;;
79261;SDS011;68699;48.220;16.358;2023-08-06T13:05:38;2.93;;;2.73;;
79261;SDS011;68699;48.220;16.358;2023-08-06T13:08:05;3.17;;;2.40;;
79261;SDS011;68699;48.220;16.358;2023-08-06T13:10:31;2.87;;;2.57;;
79261;SDS011;68699;48.220;16.358;2023-08-06T13:12:57;2.70;;;2.50;;
79261;SDS011;68699;48.220;16.358;2023-08-06T13:15:24;2.90;;;2.70;;
79261;SDS011;68699;48.220;16.358;2023-08-06T13:17:50;7.30;;;2.93;;
79261;SDS011;68699;48.220;16.358;2023-08-06T13:20:17;3.00;;;2.70;;
79261;SDS011;68699;48.220;16.358;2023-08-06T13:22:44;2.93;;;2.50;;
79261;SDS011;68699;48.220;16.358;2023-08-06T13:25:12;2.70;;;2.50;;
79261;SDS011;68699;48.220;16.358;2023-08-06T13:27:40;2.70;;;2.50;;
79261;SDS011;68699;48.220;16.358;2023-08-06T13:30:06;2.77;;;2.57;;
79261;SDS011;68699;48.220;16.358;2023-08-06T13:32:33;2.57;;;2.37;;
79261;SDS011;68699;48.220;16.358;2023-08-06T13:35:02;2.87;;;2.60;;
79261;SDS011;68699;48.220;16.358;2023-08-06T13:37:29;2.33;;;2.13;;
79261;SDS011;68699;48.220;16.358;2023-08-06T13:39:55;2.60;;;2.40;;
79261;SDS011;68699;48.220;16.358;2023-08-06T13:42:22;2.73;;;2.30;;
79261;SDS011;68699;48.220;16.358;2023-08-06T13:44:48;2.30;;;2.10;;
79261;SDS011;68699;48.220;16.358;2023-08-06T13:47:15;2.50;;;2.30;;
79261;SDS011;68699;48.220;16.358;2023-08-06T13:49:41;2.60;;;2.40;;
79261;SDS011;68699;48.220;16.358;2023-08-06T13:52:08;2.30;;;2.10;;
79261;SDS011;68699;48.220;16.358;2023-08-06T13:54:34;2.00;;;1.90;;
79261;SDS011;68699;48.220;16.358;2023-08-06T13:57:00;2.27;;;2.07;;
79261;SDS011;68699;48.220;16.358;2023-08-06T13:59:27;2.30;;;2.10;;
79261;SDS011;68699;48.220;16.358;2023-08-06T14:01:53;2.67;;;2.53;;
79261;SDS011;68699;48.220;16.358;2023-08-06T14:04:21;2.40;;;2.20;;
79261;SDS011;68699;48.220;16.358;2023-08-06T14:06:48;2.40;;;2.20;;
79261;SDS011;68699;48.220;16.358;2023-08-06T14:09:14;3.00;;;2.10;;
79261;SDS011;68699;48.220;16.358;2023-08-06T14:11:44;2.00;;;1.90;;
79261;SDS011;68699;48.220;16.358;2023-08-06T14:14:10;1.80;;;1.70;;
79261;SDS011;68699;48.220;16.358;2023-08-06T14:16:37;1.90;;;1.50;;
79261;SDS011;68699;48.220;16.358;2023-08-06T14:19:03;1.30;;;1.30;;
79261;SDS011;68699;48.220;16.358;2023-08-06T14:21:30;1.30;;;1.30;;
79261;SDS011;68699;48.220;16.358;2023-08-06T14:23:57;1.20;;;1.17;;
79261;SDS011;68699;48.220;16.358;2023-08-06T14:26:23;1.67;;;1.57;;
79261;SDS011;68699;48.220;16.358;2023-08-06T14:28:50;1.20;;;1.20;;
79261;SDS011;68699;48.220;16.358;2023-08-06T14:31:20;1.33;;;1.00;;
79261;SDS011;68699;48.220;16.358;2023-08-06T14:33:46;1.43;;;0.90;;
79261;SDS011;68699;48.220;16.358;2023-08-06T14:36:13;1.20;;;1.10;;
79261;SDS011;68699;48.220;16.358;2023-08-06T14:38:39;1.10;;;0.93;;